Terminal Aerodrome Forecast
Issued by NWS

Home | Current Version | Previous Version | Text Only | Print | Product List | Glossary On
Versions: 1 2 3 4 5 6 7 8 9 10 11 12 13 14 15 16 17 18 19 20 21 22 23 24 25 26 27 28 29 30 31 32 33 34
000
FTUS45 KGJT 251849 AAA
TAFTEX
TAF AMD
KTEX 251849Z 2519/2618 28014G18KT P6SM VCSH SCT008 BKN020 OVC060
     FM252000 29008KT P6SM VCTS OVC020CB
      TEMPO 2520/2524 -TSRA
     FM260200 31004KT P6SM VCSH BKN025
     FM260800 33005KT P6SM BKN035
     FM261000 34005KT P6SM VCSH SCT040
     FM261200 01005KT P6SM SCT035=

USA.gov is the U.S. government's official web portal to all federal, state and local government web resources and services.